createdAt,value
2023-05-22T00:01:46.880Z,66594.06
2023-05-22T00:06:52.553Z,66519.34
2023-05-22T00:11:56.760Z,66565.75
2023-05-22T00:17:00.859Z,66520.41
2023-05-22T00:22:06.821Z,66495.69
2023-05-22T00:27:10.758Z,66456.03
2023-05-22T00:32:14.781Z,66472.53
2023-05-22T00:37:20.911Z,66448.97
2023-05-22T00:42:25.171Z,66431.16
2023-05-22T00:47:29.238Z,66443.59
2023-05-22T00:52:36.572Z,66463.47
2023-05-22T00:57:42.116Z,66473.06
2023-05-22T01:02:46.318Z,66454.97
2023-05-22T01:07:51.851Z,66479.50
2023-05-22T01:13:02.875Z,66447.28
2023-05-22T01:18:19.868Z,66454.34
2023-05-22T01:23:57.654Z,66479.50
2023-05-22T01:29:16.557Z,66409.84
2023-05-22T01:34:23.084Z,66396.50
2023-05-22T01:39:29.984Z,66403.41
2023-05-22T01:44:33.976Z,66394.81
2023-05-22T01:49:39.984Z,66376.56
2023-05-22T01:54:52.971Z,66368.41
2023-05-22T02:00:07.421Z,66345.44
2023-05-22T02:05:24.578Z,66337.31
2023-05-22T02:10:30.681Z,66334.69
2023-05-22T02:15:39.032Z,66341.69
2023-05-22T02:20:50.914Z,66255.75
2023-05-22T02:25:55.561Z,66289.13
2023-05-22T02:30:59.585Z,66259.97
2023-05-22T02:36:05.911Z,66233.75
2023-05-22T02:41:10.015Z,66244.41
2023-05-22T02:46:14.335Z,66249.88
2023-05-22T02:51:19.677Z,66236.00
2023-05-22T02:56:24.169Z,66217.59
2023-05-22T03:01:30.625Z,66216.06
2023-05-22T03:06:37.298Z,66222.06
2023-05-22T03:11:41.549Z,66250.31
2023-05-22T03:16:45.959Z,66274.53
2023-05-22T03:21:51.475Z,66276.22
2023-05-22T03:26:55.603Z,66289.19
2023-05-22T03:32:11.520Z,66319.69
2023-05-22T03:37:16.854Z,66319.69
2023-05-22T03:42:20.851Z,66345.59
2023-05-22T03:47:24.940Z,66325.03
2023-05-22T03:52:30.542Z,66431.88
2023-05-22T03:57:34.528Z,66417.84
2023-05-22T04:02:40.053Z,66413.53
2023-05-22T04:07:45.547Z,66417.91
2023-05-22T04:12:49.470Z,66445.31
2023-05-22T04:17:54.698Z,66422.13
2023-05-22T04:23:00.139Z,66421.69
2023-05-22T04:28:04.469Z,66467.84
2023-05-22T04:33:11.161Z,66465.72
2023-05-22T04:38:18.438Z,66534.47
2023-05-22T04:43:23.494Z,66581.06
2023-05-22T04:48:28.179Z,66567.72
2023-05-22T04:53:33.667Z,66530.69
2023-05-22T04:58:38.246Z,66576.31
2023-05-22T05:03:43.251Z,66612.50
2023-05-22T05:08:49.854Z,66638.59
2023-05-22T05:13:54.035Z,66673.56
2023-05-22T05:18:57.979Z,66703.78
2023-05-22T05:24:03.549Z,66811.91
2023-05-22T05:29:07.459Z,66935.88
2023-05-22T05:34:20.317Z,66897.69
2023-05-22T05:39:48.819Z,66820.50
2023-05-22T05:44:52.910Z,66775.88
2023-05-22T05:49:58.672Z,66826.50
2023-05-22T05:55:07.788Z,66853.50
2023-05-22T06:00:13.531Z,66887.31
2023-05-22T06:05:20.302Z,66892.97
2023-05-22T06:10:29.500Z,66846.44
2023-05-22T06:15:48.517Z,66928.84
2023-05-22T06:20:53.358Z,66955.34
2023-05-22T06:25:59.001Z,66886.84
2023-05-22T06:31:03.790Z,66942.88
2023-05-22T06:36:09.491Z,66925.69
2023-05-22T06:41:14.971Z,67078.31
2023-05-22T06:46:19.352Z,67131.66
2023-05-22T06:51:29.713Z,67057.72
2023-05-22T06:56:43.131Z,67082.47
2023-05-22T07:01:52.391Z,67065.97
2023-05-22T07:07:06.479Z,67048.69
2023-05-22T07:12:12.626Z,67015.66
2023-05-22T07:17:17.221Z,67054.44
2023-05-22T07:22:22.028Z,67026.44
2023-05-22T07:27:27.886Z,67024.34
2023-05-22T07:32:31.950Z,66995.25
2023-05-22T07:37:39.166Z,67073.44
2023-05-22T07:42:44.635Z,67073.97
2023-05-22T07:47:50.369Z,67096.50
2023-05-22T07:52:54.897Z,67059.97
2023-05-22T07:58:04.235Z,67086.38
2023-05-22T08:03:13.768Z,67096.03
2023-05-22T08:08:18.127Z,67110.66
2023-05-22T08:13:23.819Z,67147.38
2023-05-22T08:18:29.401Z,67170.16
2023-05-22T08:23:36.455Z,67198.09
2023-05-22T08:28:44.402Z,67195.25
2023-05-22T08:33:48.512Z,67208.28
2023-05-22T08:38:52.778Z,67170.50
2023-05-22T08:43:58.773Z,67144.63
2023-05-22T08:49:03.630Z,67124.84
2023-05-22T08:54:08.477Z,67138.72
2023-05-22T08:59:14.224Z,67176.56
2023-05-22T09:04:18.834Z,67140.75
2023-05-22T09:09:22.836Z,67186.22
2023-05-22T09:14:28.148Z,67250.28
2023-05-22T09:19:32.336Z,67208.28
2023-05-22T09:24:40.105Z,67236.94
2023-05-22T09:29:53.067Z,67258.59
2023-05-22T09:35:04.224Z,67247.78
2023-05-22T09:40:11.846Z,67252.09
2023-05-22T09:45:22.837Z,67278.56
2023-05-22T09:50:26.803Z,67324.91
2023-05-22T09:55:32.188Z,67329.38
2023-05-22T10:00:39.244Z,67355.31
2023-05-22T10:05:49.956Z,67337.94
2023-05-22T10:10:54.318Z,67313.63
2023-05-22T10:16:04.256Z,67368.81
2023-05-22T10:21:08.461Z,67373.19
2023-05-22T10:26:12.842Z,67382.19
2023-05-22T10:31:30.205Z,67405.56
2023-05-22T10:37:16.916Z,67519.75
2023-05-22T10:42:22.421Z,67514.22
2023-05-22T10:47:27.985Z,67484.53
2023-05-22T10:52:32.203Z,67466.13
2023-05-22T10:57:38.373Z,67495.81
2023-05-22T11:02:45.691Z,67556.41
2023-05-22T11:08:10.810Z,67494.19
2023-05-22T11:13:14.818Z,67501.34
2023-05-22T11:18:20.259Z,67580.84
2023-05-22T11:23:26.709Z,67767.03
2023-05-22T11:28:31.971Z,67796.94
2023-05-22T11:33:37.043Z,67800.63
2023-05-22T11:38:41.891Z,67776.41
2023-05-22T11:43:45.888Z,67563.50
2023-05-22T11:48:51.264Z,67683.19
2023-05-22T11:53:55.627Z,67684.81
2023-05-22T11:58:59.649Z,67813.75
2023-05-22T12:04:06.060Z,67862.41
2023-05-22T12:09:11.017Z,67958.09
2023-05-22T12:14:15.427Z,67897.19
2023-05-22T12:19:20.913Z,67875.44
2023-05-22T12:24:24.920Z,68085.97
2023-05-22T12:29:29.178Z,67877.22
2023-05-22T12:34:36.194Z,67875.03
2023-05-22T12:39:40.163Z,67881.56
2023-05-22T12:44:46.786Z,67967.75
2023-05-22T12:49:52.367Z,68017.59
2023-05-22T12:54:56.428Z,67863.56
2023-05-22T13:00:00.433Z,67866.28
2023-05-22T13:05:06.744Z,67872.84
2023-05-22T13:10:11.108Z,67844.06
2023-05-22T13:15:16.148Z,67891.81
2023-05-22T13:20:21.306Z,67773.03
2023-05-22T13:25:25.499Z,67891.81
2023-05-22T13:30:30.151Z,67939.53
2023-05-22T13:35:35.556Z,68079.09
2023-05-22T13:40:39.565Z,67987.84
2023-05-22T13:45:43.637Z,68022.50
2023-05-22T13:50:48.981Z,68006.88
2023-05-22T13:55:53.049Z,68041.06
2023-05-22T14:00:57.525Z,68015.47
2023-05-22T14:06:03.362Z,68003.56
2023-05-22T14:11:07.416Z,67881.44
2023-05-22T14:16:11.363Z,67903.22
2023-05-22T14:21:18.836Z,67908.59
2023-05-22T14:26:24.271Z,67990.03
2023-05-22T14:31:29.451Z,67925.97
2023-05-22T14:36:34.922Z,67903.66
2023-05-22T14:41:38.873Z,67717.81
2023-05-22T14:46:43.274Z,67787.19
2023-05-22T14:51:48.837Z,67768.09
2023-05-22T14:56:52.797Z,67799.09
2023-05-22T15:01:57.125Z,67824.00
2023-05-22T15:07:02.813Z,67813.75
2023-05-22T15:12:07.291Z,67754.66
2023-05-22T15:17:11.346Z,67755.13
2023-05-22T15:22:19.996Z,67720.53
2023-05-22T15:27:24.223Z,67716.63
2023-05-22T15:33:05.311Z,67715.72
2023-05-22T15:38:26.492Z,67868.56
2023-05-22T15:43:30.923Z,67915.69
2023-05-22T15:48:34.843Z,67791.53
2023-05-22T15:53:40.251Z,67666.34
2023-05-22T15:58:44.322Z,67562.97
2023-05-22T16:03:48.442Z,67437.97
2023-05-22T16:08:53.912Z,67491.53
2023-05-22T16:13:57.872Z,67447.16
2023-05-22T16:19:01.927Z,67415.84
2023-05-22T16:24:07.860Z,67374.69
2023-05-22T16:29:11.945Z,67381.31
2023-05-22T16:34:16.789Z,67356.31
2023-05-22T16:39:22.632Z,67318.00
2023-05-22T16:44:26.351Z,67346.53
2023-05-22T16:49:30.550Z,67367.19
2023-05-22T16:54:36.918Z,67303.69
2023-05-22T16:59:41.349Z,67312.06
2023-05-22T17:04:46.386Z,67291.47
2023-05-22T17:09:51.806Z,67327.13
2023-05-22T17:14:55.654Z,67342.88
2023-05-22T17:20:01.639Z,67360.03
2023-05-22T17:25:08.148Z,67348.75
2023-05-22T17:30:12.909Z,67306.09
2023-05-22T17:35:17.021Z,67283.91
2023-05-22T17:40:32.482Z,67283.97
2023-05-22T17:45:49.775Z,67273.09
2023-05-22T17:50:54.828Z,67278.53
2023-05-22T17:56:00.207Z,67262.31
2023-05-22T18:01:04.065Z,67246.72
2023-05-22T18:06:08.698Z,67233.66
2023-05-22T18:11:14.148Z,67213.16
2023-05-22T18:16:19.495Z,67220.16
2023-05-22T18:21:23.539Z,67219.69
2023-05-22T18:26:28.952Z,67208.78
2023-05-22T18:31:32.884Z,67193.72
2023-05-22T18:36:36.833Z,67188.44
2023-05-22T18:41:42.276Z,67178.06
2023-05-22T18:46:46.243Z,67165.72
2023-05-22T18:51:50.246Z,67168.81
2023-05-22T18:56:55.551Z,67178.06
2023-05-22T19:01:59.479Z,67160.25
2023-05-22T19:07:03.407Z,67163.97
2023-05-22T19:12:09.260Z,67139.34
2023-05-22T19:17:13.779Z,67120.38
2023-05-22T19:22:18.335Z,67115.50
2023-05-22T19:27:23.685Z,67089.09
2023-05-22T19:32:27.611Z,67050.72
2023-05-22T19:37:31.525Z,67022.72
2023-05-22T19:42:39.757Z,67025.34
2023-05-22T19:47:43.919Z,66990.91
2023-05-22T19:52:48.379Z,67003.25
2023-05-22T19:57:53.782Z,67009.78
2023-05-22T20:02:57.800Z,66958.59
2023-05-22T20:08:01.902Z,66980.75
2023-05-22T20:13:10.264Z,66984.91
2023-05-22T20:18:14.512Z,66969.38
2023-05-22T20:23:18.545Z,66966.13
2023-05-22T20:28:23.930Z,66941.19
2023-05-22T20:33:28.389Z,66906.69
2023-05-22T20:38:34.812Z,66888.50
2023-05-22T20:43:43.429Z,66859.81
2023-05-22T20:48:48.321Z,66849.13
2023-05-22T20:53:53.457Z,66831.97
2023-05-22T20:58:59.003Z,66861.53
2023-05-22T21:04:03.203Z,66865.91
2023-05-22T21:09:07.130Z,66872.91
2023-05-22T21:14:12.451Z,66860.91
2023-05-22T21:19:16.596Z,66842.13
2023-05-22T21:24:21.933Z,66825.44
2023-05-22T21:29:27.781Z,66823.91
2023-05-22T21:34:31.742Z,66822.75
2023-05-22T21:39:35.820Z,66639.69
2023-05-22T21:44:41.133Z,66573.63
2023-05-22T21:49:45.057Z,66604.81
2023-05-22T21:54:49.073Z,66640.75
2023-05-22T21:59:54.612Z,66596.22
2023-05-22T22:04:58.690Z,66639.75
2023-05-22T22:10:02.714Z,66517.72
2023-05-22T22:15:09.243Z,66410.13
2023-05-22T22:20:13.376Z,66478.06
2023-05-22T22:25:17.401Z,66532.16
2023-05-22T22:30:22.843Z,66536.91
2023-05-22T22:35:26.772Z,66552.72
2023-05-22T22:40:30.730Z,66563.97
2023-05-22T22:45:36.050Z,66551.66
2023-05-22T22:50:40.221Z,66578.94
2023-05-22T22:55:44.627Z,66547.28
2023-05-22T23:00:50.486Z,66523.63
2023-05-22T23:05:54.481Z,66512.88
2023-05-22T23:10:58.490Z,66485.50
2023-05-22T23:16:03.891Z,66426.44
2023-05-22T23:21:07.868Z,66442.44
2023-05-22T23:26:11.870Z,66474.66
2023-05-22T23:31:17.596Z,66453.91
2023-05-22T23:36:21.853Z,66439.13
2023-05-22T23:41:25.761Z,66296.00
2023-05-22T23:46:31.125Z,66341.69
2023-05-22T23:51:35.282Z,66350.09
2023-05-22T23:56:39.149Z,66379.53
